createdAt,value
2022-09-02T00:00:14.003Z,96663.47
2022-09-02T00:03:01.250Z,96666.27
2022-09-02T00:05:29.884Z,96661.81
2022-09-02T00:07:58.137Z,96664.02
2022-09-02T00:10:26.706Z,96658.10
2022-09-02T00:12:55.676Z,96659.17
2022-09-02T00:15:23.857Z,96655.27
2022-09-02T00:17:52.763Z,96655.02
2022-09-02T00:20:21.442Z,96649.35
2022-09-02T00:22:49.682Z,96651.36
2022-09-02T00:25:17.854Z,96647.80
2022-09-02T00:27:46.140Z,96647.76
2022-09-02T00:30:14.688Z,96646.31
2022-09-02T00:32:43.083Z,96641.23
2022-09-02T00:35:11.323Z,96641.28
2022-09-02T00:37:39.653Z,96641.30
2022-09-02T00:40:08.948Z,96639.13
2022-09-02T00:42:37.156Z,96640.09
2022-09-02T00:45:07.189Z,96641.02
2022-09-02T00:47:37.117Z,96642.73
2022-09-02T00:50:10.047Z,96644.64
2022-09-02T00:52:48.223Z,96643.62
2022-09-02T00:55:26.438Z,96647.02
2022-09-02T00:58:01.073Z,96649.26
2022-09-02T01:00:40.345Z,96652.23
2022-09-02T01:03:13.492Z,96651.73
2022-09-02T01:05:45.703Z,96651.25
2022-09-02T01:08:20.635Z,96649.69
2022-09-02T01:10:50.062Z,96649.80
2022-09-02T01:13:21.109Z,96653.41
2022-09-02T01:16:11.280Z,96655.36
2022-09-02T01:18:39.590Z,96658.92
2022-09-02T01:21:07.800Z,96654.86
2022-09-02T01:23:37.225Z,96659.67
2022-09-02T01:26:08.083Z,96655.79
2022-09-02T01:28:37.373Z,96655.86
2022-09-02T01:31:06.172Z,96654.91
2022-09-02T01:33:35.320Z,96657.06
2022-09-02T01:36:05.094Z,96656.08
2022-09-02T01:38:33.276Z,96655.14
2022-09-02T01:41:01.791Z,96656.74
2022-09-02T01:43:30.478Z,96656.98
2022-09-02T01:46:00.130Z,96656.11
2022-09-02T01:48:30.640Z,96653.58
2022-09-02T01:51:05.050Z,96657.76
2022-09-02T01:53:35.310Z,96652.05
2022-09-02T01:56:03.840Z,96651.49
2022-09-02T01:58:34.630Z,96650.48
2022-09-02T02:01:03.636Z,96653.61
2022-09-02T02:03:32.769Z,96646.77
2022-09-02T02:06:12.305Z,96652.82
2022-09-02T02:08:45.348Z,96653.25
2022-09-02T02:11:20.607Z,96649.13
2022-09-02T02:13:52.357Z,96648.05
2022-09-02T02:16:25.328Z,96651.29
2022-09-02T02:18:53.832Z,96649.42
2022-09-02T02:21:24.459Z,96655.19
2022-09-02T02:23:54.025Z,96658.81
2022-09-02T02:26:22.756Z,96661.31
2022-09-02T02:28:51.090Z,96658.35
2022-09-02T02:31:20.986Z,96655.61
2022-09-02T02:33:50.458Z,96650.45
2022-09-02T02:36:20.023Z,96647.92
2022-09-02T02:38:48.298Z,96649.79
2022-09-02T02:41:16.697Z,96649.80
2022-09-02T02:43:48.105Z,96646.38
2022-09-02T02:46:17.119Z,96646.80
2022-09-02T02:48:46.063Z,96650.02
2022-09-02T02:51:15.051Z,96649.06
2022-09-02T02:53:43.390Z,96649.98
2022-09-02T02:56:12.041Z,96645.70
2022-09-02T02:58:40.740Z,96644.52
2022-09-02T03:01:10.730Z,96645.27
2022-09-02T03:03:43.701Z,96645.98
2022-09-02T03:06:14.247Z,96642.60
2022-09-02T03:08:43.890Z,96646.63
2022-09-02T03:11:13.051Z,96647.91
2022-09-02T03:13:41.845Z,96644.52
2022-09-02T03:16:10.403Z,96641.70
2022-09-02T03:18:41.474Z,96644.88
2022-09-02T03:21:10.426Z,96643.03
2022-09-02T03:23:38.836Z,96647.05
2022-09-02T03:26:20.335Z,96650.02
2022-09-02T03:28:50.435Z,96652.63
2022-09-02T03:31:24.414Z,96654.94
2022-09-02T03:33:56.786Z,96654.61
2022-09-02T03:36:31.266Z,96657.61
2022-09-02T03:39:03.947Z,96659.04
2022-09-02T03:41:44.406Z,96663.66
2022-09-02T03:44:17.486Z,96662.41
2022-09-02T03:46:46.856Z,96661.70
2022-09-02T03:49:15.171Z,96665.00
2022-09-02T03:51:44.565Z,96663.45
2022-09-02T03:54:26.050Z,96667.97
2022-09-02T03:56:57.830Z,96669.52
2022-09-02T03:59:26.483Z,96668.52
2022-09-02T04:01:55.804Z,96673.27
2022-09-02T04:04:33.958Z,96675.30
2022-09-02T04:07:02.216Z,96671.92
2022-09-02T04:09:33.822Z,96673.02
2022-09-02T04:12:11.902Z,96671.55
2022-09-02T04:14:42.846Z,96675.38
2022-09-02T04:17:12.422Z,96673.63
2022-09-02T04:19:41.809Z,96677.34
2022-09-02T04:22:13.243Z,96673.76
2022-09-02T04:24:42.170Z,96677.17
2022-09-02T04:27:10.464Z,96673.70
2022-09-02T04:29:41.873Z,96677.03
2022-09-02T04:32:10.029Z,96671.09
2022-09-02T04:34:43.982Z,96671.67
2022-09-02T04:37:13.911Z,96676.58
2022-09-02T04:39:42.664Z,96676.33
2022-09-02T04:42:14.025Z,96674.93
2022-09-02T04:44:42.828Z,96675.29
2022-09-02T04:47:11.747Z,96675.44
2022-09-02T04:49:43.641Z,96677.86
2022-09-02T04:52:12.327Z,96675.39
2022-09-02T04:54:40.657Z,96676.78
2022-09-02T04:57:09.107Z,96675.02
2022-09-02T04:59:39.119Z,96675.71
2022-09-02T05:02:11.375Z,96680.54
2022-09-02T05:04:39.753Z,96680.86
2022-09-02T05:07:12.366Z,96678.79
2022-09-02T05:09:45.055Z,96681.55
2022-09-02T05:12:15.284Z,96683.50
2022-09-02T05:14:50.811Z,96681.90
2022-09-02T05:17:20.433Z,96684.73
2022-09-02T05:19:49.791Z,96685.11
2022-09-02T05:22:19.973Z,96683.71
2022-09-02T05:24:48.498Z,96684.64
2022-09-02T05:27:16.819Z,96687.67
2022-09-02T05:29:46.579Z,96685.71
2022-09-02T05:32:16.549Z,96685.17
2022-09-02T05:34:45.146Z,96686.86
2022-09-02T05:37:13.270Z,96687.88
2022-09-02T05:39:41.438Z,96687.81
2022-09-02T05:42:11.633Z,96694.59
2022-09-02T05:44:40.304Z,96691.99
2022-09-02T05:47:11.575Z,96695.20
2022-09-02T05:49:39.798Z,96696.23
2022-09-02T05:52:14.102Z,96697.39
2022-09-02T05:54:46.187Z,96695.23
2022-09-02T05:57:17.775Z,96696.64
2022-09-02T05:59:57.027Z,96692.89
2022-09-02T06:02:30.906Z,96698.08
2022-09-02T06:04:59.212Z,96699.48
2022-09-02T06:07:27.691Z,96702.11
2022-09-02T06:09:57.190Z,96703.54
2022-09-02T06:12:27.983Z,96704.91
2022-09-02T06:14:56.342Z,96705.29
2022-09-02T06:17:24.523Z,96702.15
2022-09-02T06:19:53.783Z,96698.29
2022-09-02T06:22:24.802Z,96706.94
2022-09-02T06:24:54.980Z,96707.93
2022-09-02T06:27:26.168Z,96707.79
2022-09-02T06:29:55.168Z,96708.86
2022-09-02T06:32:25.395Z,96705.59
2022-09-02T06:34:58.968Z,96712.02
2022-09-02T06:37:27.695Z,96716.60
2022-09-02T06:39:56.055Z,96717.30
2022-09-02T06:42:27.814Z,96719.86
2022-09-02T06:45:09.384Z,96721.86
2022-09-02T06:47:38.173Z,96723.80
2022-09-02T06:50:06.931Z,96725.35
2022-09-02T06:52:35.777Z,96725.54
2022-09-02T06:55:05.876Z,96727.11
2022-09-02T06:57:34.426Z,96731.33
2022-09-02T07:00:09.943Z,96730.60
2022-09-02T07:02:38.724Z,96732.88
2022-09-02T07:05:10.299Z,96731.40
2022-09-02T07:07:41.298Z,96733.46
2022-09-02T07:10:14.773Z,96729.88
2022-09-02T07:12:45.915Z,96729.02
2022-09-02T07:15:19.544Z,96736.11
2022-09-02T07:17:49.864Z,96744.84
2022-09-02T07:20:32.869Z,96747.69
2022-09-02T07:23:03.078Z,96747.20
2022-09-02T07:25:33.359Z,96747.16
2022-09-02T07:28:03.943Z,96750.54
2022-09-02T07:30:34.691Z,96753.51
2022-09-02T07:33:14.123Z,96750.27
2022-09-02T07:35:48.921Z,96747.48
2022-09-02T07:38:20.056Z,96743.02
2022-09-02T07:40:57.045Z,96741.05
2022-09-02T07:43:28.611Z,96739.34
2022-09-02T07:45:58.302Z,96736.11
2022-09-02T07:48:28.152Z,96739.16
2022-09-02T07:50:57.598Z,96745.56
2022-09-02T07:53:29.394Z,96740.54
2022-09-02T07:55:59.841Z,96744.39
2022-09-02T07:58:29.282Z,96746.86
2022-09-02T08:01:02.395Z,96744.09
2022-09-02T08:03:31.436Z,96748.67
2022-09-02T08:06:00.926Z,96742.63
2022-09-02T08:08:29.447Z,96743.38
2022-09-02T08:10:57.971Z,96744.77
2022-09-02T08:13:27.026Z,96745.72
2022-09-02T08:15:56.446Z,96747.23
2022-09-02T08:18:25.302Z,96746.63
2022-09-02T08:20:53.929Z,96746.84
2022-09-02T08:23:37.992Z,96745.85
2022-09-02T08:26:07.319Z,96746.63
2022-09-02T08:28:35.622Z,96747.67
2022-09-02T08:31:07.730Z,96748.40
2022-09-02T08:33:36.106Z,96743.56
2022-09-02T08:36:06.607Z,96745.23
2022-09-02T08:38:36.101Z,96745.74
2022-09-02T08:41:21.130Z,96746.63
2022-09-02T08:43:51.513Z,96742.42
2022-09-02T08:46:26.003Z,96745.99
2022-09-02T08:48:56.239Z,96746.42
2022-09-02T08:51:32.060Z,96748.73
2022-09-02T08:54:42.521Z,96751.86
2022-09-02T08:57:11.586Z,96748.31
2022-09-02T09:02:36.489Z,96749.84
2022-09-02T09:05:13.919Z,96751.71
2022-09-02T09:07:58.276Z,96754.45
2022-09-02T09:10:38.375Z,96754.90
2022-09-02T09:13:41.665Z,96757.61
2022-09-02T09:16:35.469Z,96753.79
2022-09-02T09:19:33.152Z,96753.67
2022-09-02T09:22:03.619Z,96748.63
2022-09-02T09:24:39.213Z,96747.94
2022-09-02T09:27:16.342Z,96749.77
2022-09-02T09:29:45.162Z,96753.67
2022-09-02T09:32:33.766Z,96751.04
2022-09-02T09:35:08.576Z,96747.71
2022-09-02T09:37:48.228Z,96748.80
2022-09-02T09:40:20.903Z,96747.81
2022-09-02T09:45:38.904Z,96746.23
2022-09-02T09:48:32.741Z,96744.40
2022-09-02T09:51:00.921Z,96746.77
2022-09-02T09:53:32.476Z,96750.28
2022-09-02T09:56:29.803Z,96746.96
2022-09-02T09:58:58.262Z,96744.37
2022-09-02T10:01:26.547Z,96741.27
2022-09-02T10:04:42.808Z,96743.39
2022-09-02T10:07:15.741Z,96743.53
2022-09-02T10:09:43.938Z,96743.17
2022-09-02T10:12:13.564Z,96742.98
2022-09-02T10:14:51.356Z,96738.99
2022-09-02T10:18:14.194Z,96741.02
2022-09-02T10:20:48.658Z,96739.11
2022-09-02T10:23:52.834Z,96739.86
2022-09-02T10:26:43.647Z,96736.77
2022-09-02T10:29:41.049Z,96737.25
2022-09-02T10:32:12.354Z,96732.84
2022-09-02T10:35:04.214Z,96735.24
2022-09-02T10:38:04.716Z,96732.48
2022-09-02T10:40:44.375Z,96733.14
2022-09-02T10:43:57.477Z,96730.52
2022-09-02T10:46:30.355Z,96731.16
2022-09-02T10:49:27.143Z,96727.20
2022-09-02T10:52:39.505Z,96722.52
2022-09-02T10:55:30.614Z,96724.39
2022-09-02T10:58:19.289Z,96720.87
2022-09-02T11:00:51.981Z,96719.27
2022-09-02T11:03:49.914Z,96719.80
2022-09-02T11:06:31.676Z,96725.16
2022-09-02T11:09:41.791Z,96724.57
2022-09-02T11:12:18.769Z,96721.48
2022-09-02T11:15:06.916Z,96723.31
2022-09-02T11:21:10.058Z,96721.34
2022-09-02T11:23:53.799Z,96716.67
2022-09-02T11:26:30.598Z,96719.91
2022-09-02T11:29:15.677Z,96717.94
2022-09-02T11:31:58.809Z,96721.83
2022-09-02T11:34:35.004Z,96719.05
2022-09-02T11:37:09.041Z,96718.65
2022-09-02T11:39:54.355Z,96713.69
2022-09-02T11:42:56.579Z,96717.84
2022-09-02T11:45:56.622Z,96720.16
2022-09-02T11:48:43.855Z,96718.85
2022-09-02T11:51:58.987Z,96717.16
2022-09-02T11:54:39.707Z,96714.73
2022-09-02T11:57:13.848Z,96714.56
2022-09-02T11:59:51.417Z,96709.04
2022-09-02T12:02:43.591Z,96692.99
2022-09-02T12:05:30.839Z,96685.08
2022-09-02T12:08:25.251Z,96685.40
2022-09-02T12:11:10.230Z,96689.96
2022-09-02T12:16:19.748Z,96690.04
2022-09-02T12:18:54.304Z,96692.02
2022-09-02T12:21:24.966Z,96695.81
2022-09-02T12:23:56.156Z,96693.69
2022-09-02T12:26:50.793Z,96697.27
2022-09-02T12:29:19.718Z,96696.52
2022-09-02T12:31:50.959Z,96695.40
2022-09-02T12:34:25.721Z,96694.20
2022-09-02T12:36:55.757Z,96693.52
2022-09-02T12:39:27.575Z,96690.81
2022-09-02T12:41:56.147Z,96688.11
2022-09-02T12:47:36.910Z,96686.02
2022-09-02T12:50:08.258Z,96686.28
2022-09-02T12:52:43.556Z,96685.45
2022-09-02T12:55:30.372Z,96686.44
2022-09-02T12:58:14.898Z,96688.44
2022-09-02T13:00:46.125Z,96685.49
2022-09-02T13:03:54.539Z,96680.00
2022-09-02T13:06:22.664Z,96676.77
2022-09-02T13:09:21.625Z,96678.83
2022-09-02T13:12:14.821Z,96671.66
2022-09-02T13:15:07.685Z,96674.30
2022-09-02T13:17:36.792Z,96669.10
2022-09-02T13:20:47.035Z,96672.78
2022-09-02T13:23:31.477Z,96663.59
2022-09-02T13:26:48.800Z,96662.59
2022-09-02T13:29:55.457Z,96661.83
2022-09-02T13:32:27.431Z,96662.34
2022-09-02T13:35:01.471Z,96659.44
2022-09-02T13:37:31.743Z,96662.29
2022-09-02T13:40:05.363Z,96658.82
2022-09-02T13:42:33.812Z,96661.77
2022-09-02T13:45:15.840Z,96662.98
2022-09-02T13:47:47.063Z,96665.70
2022-09-02T13:50:18.702Z,96667.52
2022-09-02T13:55:50.167Z,96669.34
2022-09-02T13:58:31.723Z,96669.02
2022-09-02T14:01:38.525Z,96666.05
2022-09-02T14:04:11.931Z,96663.89
2022-09-02T14:06:44.691Z,96668.29
2022-09-02T14:09:25.991Z,96663.37
2022-09-02T14:11:55.538Z,96667.73
2022-09-02T14:14:26.277Z,96664.16
2022-09-02T14:17:24.289Z,96661.86
2022-09-02T14:20:27.916Z,96663.02
2022-09-02T14:22:59.014Z,96664.62
2022-09-02T14:25:32.484Z,96664.39
2022-09-02T14:28:01.229Z,96663.15
2022-09-02T14:30:40.881Z,96660.03
2022-09-02T14:33:39.579Z,96662.60
2022-09-02T14:36:21.479Z,96662.75
2022-09-02T14:38:49.535Z,96663.40
2022-09-02T14:41:17.847Z,96667.05
2022-09-02T14:43:56.996Z,96668.83
2022-09-02T14:46:36.535Z,96667.86
2022-09-02T14:49:06.478Z,96665.36
2022-09-02T14:51:47.941Z,96660.86
2022-09-02T14:54:39.833Z,96664.28
2022-09-02T14:57:22.467Z,96666.99
2022-09-02T14:59:51.319Z,96661.30
2022-09-02T15:02:28.667Z,96663.17
2022-09-02T15:04:59.273Z,96665.20
2022-09-02T15:07:28.604Z,96659.02
2022-09-02T15:09:56.901Z,96661.54
2022-09-02T15:12:30.421Z,96658.23
2022-09-02T15:14:59.309Z,96660.80
2022-09-02T15:17:28.749Z,96654.75
2022-09-02T15:19:57.035Z,96655.65
2022-09-02T15:22:26.021Z,96656.06
2022-09-02T15:24:54.616Z,96654.29
2022-09-02T15:27:22.875Z,96651.86
2022-09-02T15:29:51.033Z,96648.73
2022-09-02T15:32:19.458Z,96648.38
2022-09-02T15:34:47.744Z,96647.41
2022-09-02T15:37:15.846Z,96649.79
2022-09-02T15:39:44.768Z,96649.63
2022-09-02T15:42:13.098Z,96650.27
2022-09-02T15:44:41.471Z,96652.03
2022-09-02T15:47:09.560Z,96650.10
2022-09-02T15:49:37.797Z,96646.27
2022-09-02T15:52:06.378Z,96648.72
2022-09-02T15:54:34.783Z,96642.26
2022-09-02T15:57:03.531Z,96649.41
2022-09-02T15:59:31.739Z,96652.85
2022-09-02T16:02:00.859Z,96654.52
2022-09-02T16:04:29.525Z,96650.95
2022-09-02T16:06:57.891Z,96653.70
2022-09-02T16:09:26.486Z,96650.30
2022-09-02T16:11:56.471Z,96648.53
2022-09-02T16:14:25.751Z,96636.73
2022-09-02T16:16:58.258Z,96643.11
2022-09-02T16:19:30.215Z,96639.01
2022-09-02T16:21:59.850Z,96638.16
2022-09-02T16:24:28.634Z,96637.50
2022-09-02T16:26:56.702Z,96634.14
2022-09-02T16:29:28.097Z,96633.30
2022-09-02T16:32:14.281Z,96636.80
2022-09-02T16:34:46.987Z,96637.42
2022-09-02T16:37:15.453Z,96634.21
2022-09-02T16:39:44.924Z,96638.02
2022-09-02T16:42:13.007Z,96636.81
2022-09-02T16:44:41.989Z,96637.47
2022-09-02T16:47:12.906Z,96635.54
2022-09-02T16:49:42.690Z,96637.13
2022-09-02T16:52:10.968Z,96638.69
2022-09-02T16:54:40.959Z,96635.94
2022-09-02T16:57:10.217Z,96640.18
2022-09-02T16:59:38.308Z,96636.59
2022-09-02T17:02:07.129Z,96626.46
2022-09-02T17:04:35.495Z,96637.59
2022-09-02T17:07:04.266Z,96636.86
2022-09-02T17:09:32.636Z,96631.70
2022-09-02T17:12:05.689Z,96633.73
2022-09-02T17:14:34.302Z,96630.74
2022-09-02T17:17:02.550Z,96632.00
2022-09-02T17:19:33.048Z,96625.23
2022-09-02T17:22:02.012Z,96631.14
2022-09-02T17:24:32.295Z,96629.52
2022-09-02T17:27:01.289Z,96629.54
2022-09-02T17:32:20.153Z,96634.64
2022-09-02T17:34:49.946Z,96638.48
2022-09-02T17:37:19.249Z,96634.97
2022-09-02T17:39:49.446Z,96637.21
2022-09-02T17:42:18.412Z,96638.89
2022-09-02T17:44:46.814Z,96640.55
2022-09-02T17:47:20.900Z,96646.98
2022-09-02T17:49:50.291Z,96644.80
2022-09-02T17:52:22.165Z,96642.92
2022-09-02T17:54:52.657Z,96650.93
2022-09-02T17:57:42.411Z,96653.45
2022-09-02T18:00:22.667Z,96656.02
2022-09-02T18:03:24.397Z,96653.67
2022-09-02T18:06:07.013Z,96664.84
2022-09-02T18:08:39.694Z,96665.65
2022-09-02T18:11:08.574Z,96672.55
2022-09-02T18:14:11.965Z,96674.48
2022-09-02T18:17:05.868Z,96677.14
2022-09-02T18:20:12.746Z,96680.26
2022-09-02T18:23:05.321Z,96680.55
2022-09-02T18:25:40.048Z,96680.68
2022-09-02T18:28:46.783Z,96680.54
2022-09-02T18:31:43.279Z,96682.35
2022-09-02T18:34:38.853Z,96684.27
2022-09-02T18:37:28.102Z,96681.27
2022-09-02T18:40:22.190Z,96687.77
2022-09-02T18:42:56.552Z,96685.27
2022-09-02T18:48:25.598Z,96687.63
2022-09-02T18:50:59.431Z,96688.90
2022-09-02T18:53:32.513Z,96686.88
2022-09-02T18:56:07.485Z,96689.68
2022-09-02T18:58:51.256Z,96689.13
2022-09-02T19:01:23.302Z,96687.20
2022-09-02T19:03:52.609Z,96686.92
2022-09-02T19:06:36.741Z,96686.66
2022-09-02T19:09:13.695Z,96686.98
2022-09-02T19:11:42.236Z,96686.28
2022-09-02T19:14:20.856Z,96681.96
2022-09-02T19:16:51.841Z,96679.02
2022-09-02T19:19:21.201Z,96678.53
2022-09-02T19:22:08.655Z,96682.75
2022-09-02T19:24:43.126Z,96676.97
2022-09-02T19:27:19.220Z,96676.56
2022-09-02T19:29:52.828Z,96676.14
2022-09-02T19:32:27.305Z,96675.23
2022-09-02T19:34:58.245Z,96678.55
2022-09-02T19:37:26.804Z,96674.67
2022-09-02T19:39:55.235Z,96666.02
2022-09-02T19:42:24.457Z,96667.90
2022-09-02T19:44:52.571Z,96667.23
2022-09-02T19:48:05.586Z,96667.64
2022-09-02T19:50:11.607Z,96668.34
2022-09-02T19:52:44.283Z,96671.98
2022-09-02T19:55:14.505Z,96671.91
2022-09-02T19:57:43.537Z,96673.99
2022-09-02T20:00:13.229Z,96670.48
2022-09-02T20:02:41.762Z,96671.90
2022-09-02T20:05:12.896Z,96676.27
2022-09-02T20:07:41.925Z,96677.05
2022-09-02T20:10:11.259Z,96675.55
2022-09-02T20:12:39.799Z,96678.55
2022-09-02T20:15:08.539Z,96685.73
2022-09-02T20:17:36.788Z,96681.09
2022-09-02T20:20:17.137Z,96683.96
2022-09-02T20:22:55.487Z,96681.46
2022-09-02T20:25:34.947Z,96678.11
2022-09-02T20:28:17.651Z,96676.71
2022-09-02T20:30:50.503Z,96677.36
2022-09-02T20:33:19.810Z,96678.05
2022-09-02T20:36:02.569Z,96679.30
2022-09-02T20:38:33.694Z,96683.80
2022-09-02T20:41:35.637Z,96684.56
2022-09-02T20:44:11.529Z,96681.13
2022-09-02T20:46:52.685Z,96688.02
2022-09-02T20:49:48.613Z,96685.13
2022-09-02T20:52:40.833Z,96683.30
2022-09-02T20:55:10.090Z,96682.21
2022-09-02T20:58:23.704Z,96687.73
2022-09-02T21:01:17.722Z,96687.34
2022-09-02T21:03:57.720Z,96690.56
2022-09-02T21:06:30.652Z,96690.18
2022-09-02T21:09:01.411Z,96687.73
2022-09-02T21:11:43.038Z,96686.39
2022-09-02T21:14:21.314Z,96684.94
2022-09-02T21:17:00.085Z,96680.61
2022-09-02T21:19:41.701Z,96681.85
2022-09-02T21:22:23.314Z,96684.23
2022-09-02T21:25:00.972Z,96682.81
2022-09-02T21:27:35.570Z,96681.94
2022-09-02T21:30:09.286Z,96679.78
2022-09-02T21:32:51.366Z,96677.91
2022-09-02T21:35:27.658Z,96682.98
2022-09-02T21:38:03.707Z,96683.85
2022-09-02T21:40:51.063Z,96682.90
2022-09-02T21:44:04.417Z,96684.80
2022-09-02T21:46:42.953Z,96686.50
2022-09-02T21:49:11.228Z,96688.48
2022-09-02T21:51:53.893Z,96687.96
2022-09-02T21:54:35.383Z,96684.71
2022-09-02T21:57:14.545Z,96690.56
2022-09-02T22:00:06.563Z,96691.05
2022-09-02T22:03:04.389Z,96690.21
2022-09-02T22:05:49.189Z,96694.48
2022-09-02T22:08:26.792Z,96689.11
2022-09-02T22:11:15.214Z,96686.70
2022-09-02T22:13:43.271Z,96686.59
2022-09-02T22:16:23.399Z,96686.14
2022-09-02T22:19:03.864Z,96688.77
2022-09-02T22:21:49.562Z,96690.93
2022-09-02T22:24:20.985Z,96686.32
2022-09-02T22:27:11.635Z,96692.74
2022-09-02T22:29:49.354Z,96689.56
2022-09-02T22:32:21.919Z,96691.34
2022-09-02T22:35:02.868Z,96687.17
2022-09-02T22:37:49.514Z,96686.88
2022-09-02T22:40:43.579Z,96686.81
2022-09-02T22:43:15.937Z,96684.33
2022-09-02T22:46:15.339Z,96682.80
2022-09-02T22:49:15.856Z,96683.86
2022-09-02T22:52:33.590Z,96685.26
2022-09-02T22:55:03.398Z,96677.86
2022-09-02T22:58:02.945Z,96674.80
2022-09-02T23:00:40.007Z,96681.77
2022-09-02T23:03:23.184Z,96680.08
2022-09-02T23:06:03.494Z,96677.20
2022-09-02T23:08:37.294Z,96677.60
2022-09-02T23:11:15.042Z,96676.73
2022-09-02T23:14:09.392Z,96681.17
2022-09-02T23:17:19.394Z,96686.90
2022-09-02T23:20:08.193Z,96681.41
2022-09-02T23:23:04.098Z,96681.32
2022-09-02T23:26:04.097Z,96676.65
2022-09-02T23:28:58.565Z,96670.20
2022-09-02T23:31:40.161Z,96670.20
2022-09-02T23:34:38.893Z,96667.05
2022-09-02T23:37:17.831Z,96672.09
2022-09-02T23:40:20.882Z,96674.25
2022-09-02T23:42:49.917Z,96675.85
2022-09-02T23:45:32.998Z,96675.82
2022-09-02T23:48:43.609Z,96680.12
2022-09-02T23:51:32.923Z,96675.89
2022-09-02T23:54:25.902Z,96675.75
2022-09-02T23:57:29.998Z,96682.41
